Time;durP1;ratioP1;P1;durP2;ratioP2;P2;SDS_P1;SDS_P2;PMS_P1;PMS_P2;Temp;Humidity;BMP_temperature;BMP_pressure;BME280_temperature;BME280_humidity;BME280_pressure;Samples;Min_cycle;Max_cycle;Signal;HPM_P1;HPM_P2
2022/02/19 00:02:11;;;;;;;438.33;176.93;;;;;;;4.43;100.00;97535.34;5023656;28;20451;-59
2022/02/19 00:04:36;;;;;;;448.83;188.83;;;;;;;4.50;100.00;97526.78;5024875;28;20044;-59
2022/02/19 00:07:04;;;;;;;441.50;181.43;;;;;;;5.28;100.00;97531.59;5025489;28;20044;-59
2022/02/19 00:09:29;;;;;;;426.42;173.82;;;;;;;6.33;100.00;97539.06;5021214;28;20041;-58
2022/02/19 00:11:55;;;;;;;428.97;185.83;;;;;;;8.30;100.00;97523.34;5023200;28;20826;-60
2022/02/19 00:14:21;;;;;;;436.53;216.13;;;;;;;10.33;100.00;97531.38;5024707;28;20521;-62
2022/02/19 00:16:46;;;;;;;443.67;252.70;;;;;;;11.29;100.00;97559.38;5026359;28;20044;-60
2022/02/19 00:19:11;;;;;;;454.60;294.60;;;;;;;12.14;100.00;97532.78;5025029;28;20045;-60
2022/02/19 00:21:37;;;;;;;460.43;323.60;;;;;;;12.39;99.86;97561.66;5024391;28;20060;-60
2022/02/19 00:24:03;;;;;;;464.67;352.63;;;;;;;12.62;98.10;97584.66;5026184;28;20033;-59
2022/02/19 00:26:28;;;;;;;469.00;374.83;;;;;;;12.81;97.63;97585.50;5021890;28;20041;-60
2022/02/19 00:28:54;;;;;;;469.90;389.07;;;;;;;12.69;99.19;97616.91;5021035;28;20037;-58
2022/02/19 00:31:20;;;;;;;476.77;410.70;;;;;;;12.76;98.51;97638.91;5021750;28;20037;-60
2022/02/19 00:33:45;;;;;;;516.20;461.87;;;;;;;12.38;100.00;97613.16;5024339;28;20621;-59
2022/02/19 00:36:11;;;;;;;470.37;352.17;;;;;;;12.20;99.02;97615.59;5024115;28;20347;-64
2022/02/19 00:38:36;;;;;;;552.53;496.30;;;;;;;11.96;97.03;97624.31;5021677;28;20076;-60
2022/02/19 00:41:02;;;;;;;475.90;378.77;;;;;;;11.78;95.72;97655.88;5022078;28;20040;-60
2022/02/19 00:43:28;;;;;;;474.90;368.57;;;;;;;11.50;92.28;97688.63;5023533;28;20048;-61
2022/02/19 00:45:55;;;;;;;489.10;376.63;;;;;;;11.22;94.26;97640.88;5022969;28;20042;-60
2022/02/19 00:48:21;;;;;;;453.40;323.27;;;;;;;11.17;92.83;97706.06;5021472;28;20069;-58
2022/02/19 00:50:48;;;;;;;410.33;368.87;;;;;;;11.09;90.47;97698.66;5023504;28;20356;-58
2022/02/19 00:53:13;;;;;;;476.60;382.60;;;;;;;10.93;91.15;97682.16;5021091;28;20037;-59
2022/02/19 00:55:39;;;;;;;481.80;393.03;;;;;;;10.88;86.32;97676.34;5020856;28;20261;-60
2022/02/19 00:58:04;;;;;;;472.70;318.10;;;;;;;10.72;84.51;97705.97;5020846;28;20041;-59
2022/02/19 01:00:29;;;;;;;216.80;153.03;;;;;;;10.49;82.94;97686.25;5023036;28;20424;-60
2022/02/19 01:02:55;;;;;;;434.87;282.17;;;;;;;10.33;83.82;97703.84;5022828;28;20029;-58
2022/02/19 01:05:20;;;;;;;444.60;273.73;;;;;;;10.22;85.29;97715.34;5021973;28;20033;-60
2022/02/19 01:07:46;;;;;;;469.10;315.93;;;;;;;10.07;84.84;97676.50;5020242;28;20885;-60
2022/02/19 01:10:11;;;;;;;462.57;301.03;;;;;;;10.09;84.45;97715.72;5021816;28;20223;-60
2022/02/19 01:12:37;;;;;;;459.43;297.90;;;;;;;9.95;85.02;97679.47;5024314;28;20042;-58
2022/02/19 01:15:06;;;;;;;2.42;0.40;;;;;;;9.79;85.89;97683.38;5023849;28;20041;-59
2022/02/19 01:17:32;;;;;;;0.57;0.40;;;;;;;9.62;86.96;97719.72;5021739;28;20052;-61
2022/02/19 01:19:58;;;;;;;1.50;0.63;;;;;;;9.55;85.86;97722.50;5022853;28;20113;-59
2022/02/19 01:22:23;;;;;;;0.70;0.70;;;;;;;9.48;81.60;97715.88;5026802;28;20029;-59
2022/02/19 01:24:49;;;;;;;235.60;169.93;;;;;;;9.28;82.46;97696.03;5022459;28;20148;-58
2022/02/19 01:27:14;;;;;;;380.30;272.20;;;;;;;9.13;85.79;97709.22;5021211;28;20182;-59
2022/02/19 01:29:40;;;;;;;449.90;262.60;;;;;;;9.04;87.24;97692.41;5024135;28;20051;-59
2022/02/19 01:32:06;;;;;;;453.27;265.77;;;;;;;8.92;89.02;97707.25;5024327;28;20087;-59
2022/02/19 01:34:31;;;;;;;464.67;277.40;;;;;;;8.78;91.08;97692.31;5020464;28;20590;-59
2022/02/19 01:36:56;;;;;;;462.17;365.63;;;;;;;8.59;92.58;97716.66;5019967;28;20040;-59
2022/02/19 01:39:22;;;;;;;377.63;214.83;;;;;;;8.63;94.22;97710.59;5023490;28;20352;-59
2022/02/19 01:41:47;;;;;;;344.40;209.57;;;;;;;8.56;95.02;97715.03;5024154;28;20052;-60
2022/02/19 01:44:14;;;;;;;457.67;319.67;;;;;;;8.39;97.68;97754.66;5019682;28;20079;-60
2022/02/19 01:46:40;;;;;;;463.50;254.67;;;;;;;8.27;99.58;97761.66;5018136;28;20041;-59
2022/02/19 01:49:06;;;;;;;0.60;0.47;;;;;;;8.18;100.00;97768.72;5023292;28;20038;-61
2022/02/19 01:51:34;;;;;;;428.93;207.53;;;;;;;8.21;100.00;97768.66;5022957;28;20446;-60
2022/02/19 01:54:09;;;;;;;418.93;184.40;;;;;;;8.13;100.00;97750.97;5020078;28;20301;-60
2022/02/19 01:56:36;;;;;;;432.67;217.10;;;;;;;8.09;100.00;97745.97;5020547;28;20595;-59
2022/02/19 01:59:04;;;;;;;438.50;232.07;;;;;;;8.08;100.00;97762.16;5024007;28;20307;-59
2022/02/19 02:01:29;;;;;;;436.77;220.27;;;;;;;8.12;96.24;97779.06;5022786;28;20092;-60
2022/02/19 02:03:55;;;;;;;445.93;248.70;;;;;;;8.15;88.30;97779.84;5022249;28;20829;-60
2022/02/19 02:06:24;;;;;;;444.73;243.03;;;;;;;8.19;84.87;97809.53;5022454;28;20423;-59
2022/02/19 02:08:50;;;;;;;445.77;243.33;;;;;;;8.24;82.75;97789.00;5022579;28;20065;-58
2022/02/19 02:11:16;;;;;;;450.67;248.77;;;;;;;8.26;75.33;97787.25;5023326;28;20268;-60
2022/02/19 02:13:42;;;;;;;452.37;254.43;;;;;;;8.30;71.97;97800.81;5020309;28;20848;-59
2022/02/19 02:16:07;;;;;;;450.70;247.03;;;;;;;8.33;71.46;97795.63;5021835;28;20256;-59
2022/02/19 02:18:33;;;;;;;449.40;254.13;;;;;;;8.33;67.28;97783.72;5024083;28;20076;-59
2022/02/19 02:20:58;;;;;;;453.83;262.37;;;;;;;8.36;65.43;97793.84;5022529;28;20478;-59
2022/02/19 02:23:24;;;;;;;454.73;262.67;;;;;;;8.40;64.20;97780.13;5022693;28;20037;-60
2022/02/19 02:25:52;;;;;;;444.63;244.63;;;;;;;8.52;61.91;97814.78;5023095;28;20044;-59
2022/02/19 02:28:19;;;;;;;474.90;291.87;;;;;;;8.52;60.51;97825.84;5023477;28;20314;-60
2022/02/19 02:30:45;;;;;;;475.23;284.03;;;;;;;8.45;61.71;97816.63;5022518;28;20045;-59
2022/02/19 02:33:13;;;;;;;466.40;269.10;;;;;;;8.42;60.85;97832.03;5019351;28;20634;-60
2022/02/19 02:35:39;;;;;;;476.17;293.00;;;;;;;8.51;59.68;97825.84;5021199;28;20037;-60
2022/02/19 02:38:05;;;;;;;457.40;268.97;;;;;;;8.45;60.38;97823.44;5023978;28;20284;-59
2022/02/19 02:40:32;;;;;;;476.43;307.70;;;;;;;8.42;60.99;97798.81;5021495;28;20045;-60
2022/02/19 02:42:58;;;;;;;482.27;308.93;;;;;;;8.42;60.41;97818.41;5024346;28;20260;-60
2022/02/19 02:45:24;;;;;;;486.67;320.90;;;;;;;8.37;60.79;97807.47;5025417;28;20265;-59
2022/02/19 02:47:50;;;;;;;489.60;313.40;;;;;;;8.41;60.66;97852.47;5023174;28;20538;-59
2022/02/19 02:50:15;;;;;;;488.57;312.73;;;;;;;8.43;59.66;97840.53;5020838;28;20127;-58
2022/02/19 02:52:41;;;;;;;489.63;319.30;;;;;;;8.33;60.05;97824.56;5022145;28;20769;-60
2022/02/19 02:55:07;;;;;;;488.40;319.40;;;;;;;8.44;59.16;97845.63;5023862;28;20527;-59
2022/02/19 02:57:34;;;;;;;485.70;303.47;;;;;;;8.37;59.73;97850.88;5023638;28;20431;-59
2022/02/19 03:00:00;;;;;;;489.93;304.00;;;;;;;8.42;59.99;97855.00;5022616;28;20034;-59
2022/02/19 03:02:26;;;;;;;480.00;355.30;;;;;;;8.40;59.55;97886.59;5025209;28;20087;-57
2022/02/19 03:04:51;;;;;;;500.97;330.07;;;;;;;8.36;59.17;97869.66;5024302;28;20396;-60
2022/02/19 03:07:17;;;;;;;503.27;336.73;;;;;;;8.34;60.26;97881.59;5020934;28;20050;-59
2022/02/19 03:09:42;;;;;;;505.90;338.50;;;;;;;8.38;58.91;97889.16;5019769;28;20619;-59
2022/02/19 03:12:10;;;;;;;503.60;334.80;;;;;;;8.27;59.60;97884.25;5021248;28;20045;-59
2022/02/19 03:14:35;;;;;;;503.83;332.37;;;;;;;8.21;60.25;97870.78;5021326;28;20037;-60
2022/02/19 03:17:01;;;;;;;507.60;343.70;;;;;;;8.28;59.63;97885.09;5022471;28;20054;-60
2022/02/19 03:19:26;;;;;;;503.67;334.93;;;;;;;8.23;60.27;97877.53;5020859;28;20046;-60
2022/02/19 03:21:51;;;;;;;499.90;323.90;;;;;;;8.19;59.57;97896.34;5022980;28;20120;-60
2022/02/19 03:24:18;;;;;;;500.97;328.23;;;;;;;8.20;60.10;97902.28;5024499;28;20037;-61
2022/02/19 03:26:44;;;;;;;497.90;317.57;;;;;;;8.11;59.72;97912.69;5022201;28;20045;-60
2022/02/19 03:29:09;;;;;;;498.43;321.60;;;;;;;8.11;59.47;97897.38;5020254;28;20068;-60
2022/02/19 03:31:35;;;;;;;495.53;313.73;;;;;;;8.13;59.22;97919.47;5021683;28;20271;-59
2022/02/19 03:34:00;;;;;;;500.77;333.40;;;;;;;8.13;58.84;97931.38;5026203;28;20053;-58
2022/02/19 03:36:26;;;;;;;500.30;332.10;;;;;;;8.07;59.84;97918.72;5026851;28;20095;-60
2022/02/19 03:38:51;;;;;;;502.53;331.23;;;;;;;7.96;59.65;97939.38;5023164;28;20046;-60
2022/02/19 03:41:17;;;;;;;495.40;316.47;;;;;;;8.00;58.79;97941.00;5027903;28;20034;-60
2022/02/19 03:43:42;;;;;;;497.27;301.03;;;;;;;8.07;56.93;97969.78;5026379;28;20064;-61
2022/02/19 03:46:07;;;;;;;472.20;292.50;;;;;;;8.12;56.15;97939.91;5027437;28;20067;-59
2022/02/19 03:48:33;;;;;;;470.37;286.50;;;;;;;7.99;56.97;97939.31;5031610;28;20041;-59
2022/02/19 03:50:58;;;;;;;471.90;291.27;;;;;;;8.06;55.61;97956.16;5038454;28;20049;-60
2022/02/19 03:53:24;;;;;;;472.43;288.33;;;;;;;8.01;55.61;97960.56;5034712;28;20037;-64
2022/02/19 03:55:49;;;;;;;471.97;287.90;;;;;;;7.94;55.42;97992.16;5032050;28;20233;-60
2022/02/19 03:58:14;;;;;;;470.90;280.40;;;;;;;7.92;56.04;97978.59;5025629;28;20034;-59
2022/02/19 04:00:40;;;;;;;472.03;283.97;;;;;;;7.84;55.42;97980.44;5028702;28;20038;-61
2022/02/19 04:03:08;;;;;;;470.37;275.67;;;;;;;7.96;53.50;98004.91;5027550;28;20152;-59
2022/02/19 04:05:33;;;;;;;471.17;282.83;;;;;;;7.99;52.87;97981.84;5023653;28;20272;-58
2022/02/19 04:07:59;;;;;;;471.77;285.00;;;;;;;8.01;52.48;97993.75;5027659;28;20930;-60
2022/02/19 04:10:24;;;;;;;474.30;295.17;;;;;;;8.01;51.65;97998.84;5012431;28;20049;-60
2022/02/19 04:12:49;;;;;;;472.03;279.70;;;;;;;8.01;51.16;97973.31;5028280;28;20089;-61
2022/02/19 04:15:15;;;;;;;472.40;283.10;;;;;;;8.04;51.45;97988.56;5023284;28;20393;-59
2022/02/19 04:17:40;;;;;;;474.97;286.10;;;;;;;8.08;50.08;97999.56;5024270;28;20042;-60
2022/02/19 04:20:07;;;;;;;476.20;293.53;;;;;;;8.23;48.22;97992.41;5029663;28;20522;-60
2022/02/19 04:22:32;;;;;;;477.83;297.00;;;;;;;8.25;47.87;97990.69;5027382;28;20498;-57
2022/02/19 04:24:58;;;;;;;479.43;296.70;;;;;;;8.28;47.47;98007.66;5028442;28;20267;-59
2022/02/19 04:27:25;;;;;;;477.73;293.37;;;;;;;8.26;47.68;98005.16;5025690;28;20037;-59
2022/02/19 04:29:51;;;;;;;481.70;308.50;;;;;;;8.37;45.49;97989.63;5027578;28;20061;-59
2022/02/19 04:32:16;;;;;;;483.93;310.33;;;;;;;8.43;45.17;98009.09;5025272;28;20675;-63
2022/02/19 04:34:42;;;;;;;484.67;310.60;;;;;;;8.47;44.53;97980.91;5022215;28;20042;-60
2022/02/19 04:37:07;;;;;;;483.60;308.47;;;;;;;8.51;44.33;98014.91;5022202;28;20061;-60
2022/02/19 04:39:33;;;;;;;484.63;314.67;;;;;;;8.60;43.07;98017.25;5024631;28;20120;-60
2022/02/19 04:41:58;;;;;;;486.53;323.73;;;;;;;8.72;42.39;97986.34;5024847;28;20080;-60
2022/02/19 04:44:23;;;;;;;488.10;319.93;;;;;;;8.69;42.58;98017.91;5021053;28;20466;-60
2022/02/19 04:46:49;;;;;;;489.10;320.13;;;;;;;8.61;43.32;98013.84;5023410;28;20686;-60
2022/02/19 04:49:14;;;;;;;488.37;317.77;;;;;;;8.61;42.16;98001.88;5025538;28;20042;-59
2022/02/19 04:51:40;;;;;;;490.30;322.57;;;;;;;8.62;42.75;98010.38;5026381;28;20132;-61
2022/02/19 04:54:06;;;;;;;491.03;323.03;;;;;;;8.69;42.09;98030.69;5024441;28;20096;-61
2022/02/19 04:56:32;;;;;;;493.10;333.30;;;;;;;8.68;42.16;98003.44;5021586;28;20885;-60
2022/02/19 04:58:58;;;;;;;490.67;325.27;;;;;;;8.69;41.24;98028.13;5023593;28;20129;-61
2022/02/19 05:01:24;;;;;;;493.33;333.03;;;;;;;8.60;42.37;98030.03;5023505;28;20049;-60
2022/02/19 05:03:49;;;;;;;489.07;318.07;;;;;;;8.63;40.93;98018.03;5021890;28;20271;-61
2022/02/19 05:06:15;;;;;;;492.07;328.93;;;;;;;8.77;40.39;98027.13;5022274;28;20041;-61
2022/02/19 05:08:42;;;;;;;492.20;326.13;;;;;;;8.65;41.86;98038.47;5023956;28;20045;-58
2022/02/19 05:11:08;;;;;;;491.47;323.00;;;;;;;8.54;40.71;98054.00;5021524;28;20037;-60
2022/02/19 05:13:33;;;;;;;493.53;323.97;;;;;;;8.53;41.06;98062.50;5021916;28;20135;-60
2022/02/19 05:15:59;;;;;;;494.23;324.83;;;;;;;8.51;40.93;98064.28;5025872;28;20101;-60
2022/02/19 05:18:24;;;;;;;495.00;329.67;;;;;;;8.57;40.48;98084.56;5034758;28;20043;-60
2022/02/19 05:20:49;;;;;;;494.60;324.90;;;;;;;8.67;40.17;98070.75;5034004;28;20083;-60
2022/02/19 05:23:15;;;;;;;493.17;326.97;;;;;;;8.57;41.35;98083.75;5025382;28;20403;-60
2022/02/19 05:25:41;;;;;;;493.23;326.77;;;;;;;8.50;40.87;98083.03;5023816;28;20137;-58
2022/02/19 05:28:07;;;;;;;494.40;328.37;;;;;;;8.35;41.67;98093.53;5023881;28;20048;-62
2022/02/19 05:30:34;;;;;;;495.60;330.23;;;;;;;8.42;41.73;98090.00;5019967;28;20041;-60
2022/02/19 05:32:59;;;;;;;494.83;327.07;;;;;;;8.42;41.18;98086.59;5013379;28;20060;-60
2022/02/19 05:35:25;;;;;;;496.27;333.13;;;;;;;8.42;41.49;98095.09;5006189;28;20396;-60
2022/02/19 05:37:50;;;;;;;497.20;336.40;;;;;;;8.47;41.23;98095.88;5007092;28;20122;-60
2022/02/19 05:40:16;;;;;;;496.53;332.10;;;;;;;8.57;40.64;98111.88;5005499;28;20446;-57
2022/02/19 05:42:41;;;;;;;498.53;334.13;;;;;;;8.64;40.67;98113.41;5001812;28;20446;-60
2022/02/19 05:45:07;;;;;;;497.03;332.03;;;;;;;8.63;41.17;98124.50;5002414;28;20125;-59
2022/02/19 05:47:32;;;;;;;500.60;340.80;;;;;;;8.66;41.07;98109.09;5003447;28;20041;-60
2022/02/19 05:49:58;;;;;;;501.13;342.63;;;;;;;8.59;41.36;98102.44;5002631;28;20100;-59
2022/02/19 05:52:24;;;;;;;499.50;339.20;;;;;;;8.60;41.55;98099.03;5002006;28;20054;-59
2022/02/19 05:54:53;;;;;;;501.13;349.23;;;;;;;8.62;42.00;98113.44;5004308;28;20054;-60
2022/02/19 05:57:19;;;;;;;500.13;344.77;;;;;;;8.69;40.49;98119.28;5003974;28;20096;-60
2022/02/19 05:59:45;;;;;;;502.93;349.17;;;;;;;8.75;39.87;98108.06;5002822;28;20030;-56
2022/02/19 06:02:10;;;;;;;504.50;354.27;;;;;;;8.56;42.27;98112.72;5003419;28;20057;-60
2022/02/19 06:04:35;;;;;;;508.67;362.57;;;;;;;8.57;41.95;98111.88;5012245;28;20071;-59
2022/02/19 06:07:01;;;;;;;504.90;352.50;;;;;;;8.65;40.85;98110.84;5002045;28;20113;-60
2022/02/19 06:09:26;;;;;;;501.13;348.53;;;;;;;8.66;41.18;98124.44;5002170;28;20408;-60
2022/02/19 06:11:52;;;;;;;504.33;352.23;;;;;;;8.65;40.92;98122.78;5004741;28;20115;-59
2022/02/19 06:14:17;;;;;;;505.80;357.90;;;;;;;8.61;41.82;98144.97;5006742;28;20065;-60
2022/02/19 06:16:42;;;;;;;506.20;358.30;;;;;;;8.60;40.90;98163.75;5002916;28;20043;-60
2022/02/19 06:19:08;;;;;;;505.70;353.77;;;;;;;8.72;40.35;98180.56;4998696;28;20772;-59
2022/02/19 06:21:33;;;;;;;504.23;357.87;;;;;;;8.69;40.76;98165.28;5001148;28;20056;-60
2022/02/19 06:23:59;;;;;;;510.03;368.20;;;;;;;8.66;40.82;98160.22;5001077;28;20061;-59
2022/02/19 06:26:24;;;;;;;512.33;376.90;;;;;;;8.63;40.20;98160.28;5005321;28;20798;-59
2022/02/19 06:28:49;;;;;;;512.37;376.50;;;;;;;8.69;39.70;98150.78;5001771;28;20052;-59
2022/02/19 06:31:15;;;;;;;511.80;373.73;;;;;;;8.68;39.96;98150.81;5003686;28;20134;-60
2022/02/19 06:33:40;;;;;;;508.63;362.30;;;;;;;8.70;40.49;98164.38;5013945;28;20064;-60
2022/02/19 06:36:06;;;;;;;504.93;358.23;;;;;;;8.68;40.52;98174.66;5020732;28;20136;-59
2022/02/19 06:38:32;;;;;;;504.37;359.60;;;;;;;8.66;40.80;98175.53;5019449;28;20049;-60
2022/02/19 06:40:58;;;;;;;502.13;349.33;;;;;;;8.65;40.11;98190.06;5020923;28;20480;-59
2022/02/19 06:43:23;;;;;;;503.17;354.10;;;;;;;8.77;39.91;98196.66;5023633;28;20052;-58
2022/02/19 06:45:49;;;;;;;502.67;353.80;;;;;;;8.82;39.68;98217.84;5022361;28;20038;-60
2022/02/19 06:48:14;;;;;;;503.03;356.40;;;;;;;8.80;39.19;98208.50;5018007;28;20034;-60
2022/02/19 06:50:39;;;;;;;503.97;356.03;;;;;;;8.79;39.49;98217.03;5022588;28;20052;-60
2022/02/19 06:53:05;;;;;;;505.23;361.73;;;;;;;8.75;40.63;98218.81;5023290;28;20447;-60
2022/02/19 06:55:30;;;;;;;504.37;362.87;;;;;;;8.79;39.25;98224.72;5020526;28;20041;-58
2022/02/19 06:57:56;;;;;;;505.97;363.77;;;;;;;8.83;39.20;98229.75;5003080;28;20103;-59
2022/02/19 07:00:21;;;;;;;508.47;364.20;;;;;;;8.84;39.84;98251.88;5022275;28;20042;-60
2022/02/19 07:02:46;;;;;;;509.70;372.27;;;;;;;8.88;38.95;98261.19;5022105;28;20041;-60
2022/02/19 07:05:12;;;;;;;510.17;378.47;;;;;;;8.85;39.08;98262.94;5019449;28;20045;-59
2022/02/19 07:07:38;;;;;;;509.60;380.43;;;;;;;8.85;39.37;98280.84;5021376;28;20498;-59
2022/02/19 07:10:06;;;;;;;509.80;378.90;;;;;;;8.86;38.96;98277.44;5026617;28;20047;-58
2022/02/19 07:12:32;;;;;;;507.27;374.67;;;;;;;8.92;39.68;98265.38;5027030;28;20547;-59
2022/02/19 07:14:57;;;;;;;506.53;372.77;;;;;;;8.97;38.41;98278.91;5026466;28;20049;-58
2022/02/19 07:17:22;;;;;;;507.90;373.83;;;;;;;9.01;38.57;98298.44;5005599;28;20034;-60
2022/02/19 07:19:48;;;;;;;508.07;375.43;;;;;;;8.94;40.28;98296.88;5025957;28;20029;-60
2022/02/19 07:22:13;;;;;;;506.77;377.27;;;;;;;9.02;38.79;98281.38;5025882;28;20077;-60
2022/02/19 07:24:39;;;;;;;510.03;382.13;;;;;;;8.98;38.47;98307.88;5022488;28;20117;-60
2022/02/19 07:27:04;;;;;;;505.40;369.63;;;;;;;9.08;38.46;98302.56;5024699;28;20045;-60
2022/02/19 07:29:30;;;;;;;508.03;372.23;;;;;;;9.04;39.18;98325.66;5027414;28;20072;-58
2022/02/19 07:31:55;;;;;;;508.30;372.23;;;;;;;9.05;38.95;98333.31;5026026;28;20025;-58
2022/02/19 07:34:21;;;;;;;508.13;373.97;;;;;;;9.08;38.54;98333.25;5022302;28;20050;-60
2022/02/19 07:36:46;;;;;;;508.13;374.60;;;;;;;9.04;39.62;98330.75;5023347;28;20076;-59
2022/02/19 07:39:12;;;;;;;507.40;371.47;;;;;;;9.00;40.25;98332.53;5025542;28;20048;-60
2022/02/19 07:41:38;;;;;;;509.67;376.43;;;;;;;8.99;39.79;98341.09;5026192;28;20297;-59
2022/02/19 07:44:04;;;;;;;509.77;375.33;;;;;;;8.91;40.96;98342.91;5023179;28;20041;-60
2022/02/19 07:46:30;;;;;;;507.83;373.67;;;;;;;8.94;40.27;98345.44;5026831;28;20519;-60
2022/02/19 07:48:56;;;;;;;509.53;377.07;;;;;;;9.00;40.24;98350.44;5027099;28;20052;-60
2022/02/19 07:59:34;;;;;;;512.27;383.70;;;;;;;9.35;41.37;98333.63;5025717;28;20041;-60
2022/02/19 08:01:59;;;;;;;514.33;385.10;;;;;;;9.42;39.95;98363.34;5023339;28;20046;-61
2022/02/19 08:04:25;;;;;;;511.63;387.77;;;;;;;9.59;39.54;98359.56;5021234;28;20105;-60
2022/02/19 08:06:51;;;;;;;513.30;397.33;;;;;;;9.76;38.39;98360.97;5022824;28;20103;-61
2022/02/19 08:09:16;;;;;;;513.17;397.97;;;;;;;9.78;37.87;98389.94;5022304;28;20033;-60
2022/02/19 08:11:42;;;;;;;512.67;400.00;;;;;;;9.83;38.37;98365.94;5023456;28;20045;-61
2022/02/19 08:14:07;;;;;;;514.03;402.20;;;;;;;9.79;38.51;98381.38;5024347;28;20041;-59
2022/02/19 08:16:33;;;;;;;510.83;396.77;;;;;;;9.64;38.08;98392.75;5025257;28;20133;-60
2022/02/19 08:18:59;;;;;;;509.90;392.97;;;;;;;9.73;38.21;98399.41;5023042;28;20116;-60
2022/02/19 08:21:25;;;;;;;513.60;403.07;;;;;;;9.71;37.67;98388.38;5021613;28;20704;-60
2022/02/19 08:23:51;;;;;;;514.83;402.13;;;;;;;9.62;38.36;98409.88;5024499;28;20045;-60
2022/02/19 08:26:24;;;;;;;512.57;401.60;;;;;;;9.79;39.79;98399.31;5026509;28;20486;-60
2022/02/19 08:28:53;;;;;;;512.63;404.47;;;;;;;9.85;39.37;98407.69;5025584;28;20615;-59
2022/02/19 08:31:19;;;;;;;513.63;407.07;;;;;;;9.94;39.61;98406.69;5023730;28;20046;-60
2022/02/19 08:33:45;;;;;;;519.00;423.10;;;;;;;9.96;39.01;98416.03;5025986;28;20149;-59
2022/02/19 08:36:10;;;;;;;516.27;419.27;;;;;;;9.99;40.01;98426.19;5026385;28;20038;-60
2022/02/19 08:38:36;;;;;;;517.67;419.83;;;;;;;9.93;39.38;98421.19;5023494;28;20056;-59
2022/02/19 08:41:02;;;;;;;518.60;414.27;;;;;;;10.12;40.32;98425.94;5021456;28;20041;-60
2022/02/19 08:43:27;;;;;;;517.60;417.13;;;;;;;10.05;38.69;98426.09;5024161;28;20133;-61
2022/02/19 08:45:52;;;;;;;518.23;420.73;;;;;;;10.13;39.94;98433.63;5026507;28;20057;-60
2022/02/19 08:48:18;;;;;;;522.17;434.87;;;;;;;10.29;40.44;98427.31;5025771;28;20045;-61
2022/02/19 08:50:43;;;;;;;521.37;429.93;;;;;;;10.13;40.55;98420.81;5021319;28;20041;-60
2022/02/19 08:53:10;;;;;;;521.23;433.67;;;;;;;10.27;40.63;98433.38;5023142;28;20045;-59
2022/02/19 08:55:35;;;;;;;517.00;427.83;;;;;;;10.35;40.77;98469.94;5025349;28;20044;-60
2022/02/19 08:58:01;;;;;;;514.30;423.07;;;;;;;10.08;39.88;98467.00;5021184;28;20665;-59
2022/02/19 09:00:27;;;;;;;517.47;421.53;;;;;;;9.89;39.42;98457.97;5020615;28;20049;-58
2022/02/19 09:02:52;;;;;;;513.53;409.23;;;;;;;9.94;42.03;98486.91;5025540;28;20041;-58
2022/02/19 09:05:18;;;;;;;513.77;414.27;;;;;;;9.86;42.08;98477.69;5025241;28;20041;-61
2022/02/19 09:07:44;;;;;;;513.50;407.10;;;;;;;9.97;40.27;98476.59;5024937;28;20094;-59
2022/02/19 09:10:11;;;;;;;516.43;411.53;;;;;;;10.05;41.15;98464.50;5022869;28;20045;-59
2022/02/19 09:12:40;;;;;;;518.80;424.47;;;;;;;10.19;41.40;98476.22;5027559;28;20029;-60
2022/02/19 09:15:06;;;;;;;518.63;425.47;;;;;;;10.17;39.89;98457.47;5028767;28;20149;-56
2022/02/19 09:17:31;;;;;;;517.97;428.70;;;;;;;10.35;41.84;98501.53;5026804;28;20082;-58
2022/02/19 09:19:57;;;;;;;520.20;433.40;;;;;;;10.23;39.44;98496.63;5020322;28;20049;-58
2022/02/19 09:22:22;;;;;;;518.90;434.30;;;;;;;10.37;39.71;98520.25;5023309;28;20374;-56
2022/02/19 09:24:47;;;;;;;519.50;430.87;;;;;;;10.22;40.07;98512.88;5024678;28;20044;-60
2022/02/19 09:27:13;;;;;;;520.87;434.70;;;;;;;10.29;40.99;98526.41;5021112;28;20966;-58
2022/02/19 09:29:38;;;;;;;519.03;425.23;;;;;;;10.13;41.10;98514.75;5019489;28;20415;-57
2022/02/19 09:32:04;;;;;;;515.30;420.50;;;;;;;10.16;40.77;98524.94;5024212;28;20029;-59
2022/02/19 09:34:30;;;;;;;514.37;415.73;;;;;;;10.12;40.42;98513.88;5026492;28;20081;-59
2022/02/19 09:36:55;;;;;;;515.03;415.30;;;;;;;10.15;42.37;98502.72;5022715;28;20045;-60
2022/02/19 09:39:21;;;;;;;515.67;411.90;;;;;;;10.11;41.91;98496.81;5021428;28;20056;-57
2022/02/19 09:41:48;;;;;;;515.43;414.70;;;;;;;10.19;42.61;98500.13;5023142;28;20030;-59
2022/02/19 09:44:15;;;;;;;515.43;419.60;;;;;;;10.13;41.39;98532.66;5021819;28;20534;-61
2022/02/19 09:46:40;;;;;;;514.30;419.90;;;;;;;10.33;41.90;98513.50;5019638;28;20080;-58
2022/02/19 09:49:08;;;;;;;514.07;411.43;;;;;;;10.10;40.16;98536.13;5022180;28;20791;-58
2022/02/19 09:51:34;;;;;;;512.27;409.77;;;;;;;10.23;41.53;98521.38;5022167;28;20056;-57
2022/02/19 09:54:00;;;;;;;514.70;418.63;;;;;;;10.23;41.71;98552.13;5022457;28;20072;-59
2022/02/19 09:56:28;;;;;;;515.47;418.40;;;;;;;10.36;41.63;98545.91;5019784;28;20435;-59
2022/02/19 09:58:58;;;;;;;520.13;426.77;;;;;;;10.16;40.74;98548.00;5020738;28;20839;-58
2022/02/19 10:01:26;;;;;;;514.63;413.87;;;;;;;10.17;41.50;98544.59;5022524;28;20041;-57
2022/02/19 10:04:01;;;;;;;514.57;416.97;;;;;;;10.15;40.62;98548.84;5022259;28;20606;-59
2022/02/19 10:06:38;;;;;;;514.30;407.60;;;;;;;10.08;40.79;98556.66;5019564;28;20049;-55
2022/02/19 10:09:15;;;;;;;512.47;403.53;;;;;;;10.16;41.06;98559.09;5020667;28;20605;-58
2022/02/19 10:11:41;;;;;;;510.57;397.57;;;;;;;10.03;40.64;98561.00;5023320;28;20049;-58
2022/02/19 10:14:29;;;;;;;510.83;403.53;;;;;;;10.03;41.00;98573.81;5019623;28;20372;-57
2022/02/19 10:17:21;;;;;;;513.40;407.20;;;;;;;9.94;41.34;98581.66;5018608;28;20061;-58
2022/02/19 10:19:52;;;;;;;510.60;400.17;;;;;;;9.95;41.89;98565.44;5023743;28;20049;-59
2022/02/19 10:22:20;;;;;;;512.17;407.10;;;;;;;9.95;41.01;98583.34;5026861;28;20043;-58
2022/02/19 10:24:47;;;;;;;511.63;398.40;;;;;;;10.04;41.62;98582.34;5022845;28;20088;-59
2022/02/19 10:27:13;;;;;;;514.43;401.30;;;;;;;9.99;41.45;98569.63;5023913;28;20046;-60
2022/02/19 10:29:54;;;;;;;511.23;399.70;;;;;;;10.09;41.40;98576.28;5025721;28;20111;-59
2022/02/19 10:32:22;;;;;;;508.23;391.33;;;;;;;10.06;40.80;98584.00;5018589;28;20157;-61
2022/02/19 10:35:01;;;;;;;508.27;394.43;;;;;;;10.00;40.24;98580.72;5002126;28;20029;-59
2022/02/19 10:37:28;;;;;;;504.03;388.77;;;;;;;10.04;40.52;98567.84;5003064;28;20037;-61
2022/02/19 10:39:56;;;;;;;505.53;393.63;;;;;;;9.96;40.74;98551.75;5003787;28;20045;-58
2022/02/19 10:42:32;;;;;;;503.70;387.77;;;;;;;10.09;40.96;98589.09;5001099;28;20056;-60
2022/02/19 10:44:58;;;;;;;507.23;395.13;;;;;;;10.27;41.06;98579.41;4998701;28;20901;-60
2022/02/19 10:47:26;;;;;;;505.50;397.53;;;;;;;10.24;39.62;98595.66;5001314;28;20042;-59
2022/02/19 10:50:12;;;;;;;505.00;391.87;;;;;;;10.20;39.16;98567.56;5004962;28;20038;-59
2022/02/19 10:52:40;;;;;;;503.90;393.70;;;;;;;10.19;39.70;98596.63;4999748;28;20049;-62
2022/02/19 10:55:07;;;;;;;506.73;399.83;;;;;;;10.13;39.83;98605.25;5000442;28;20099;-60
2022/02/19 10:57:39;;;;;;;504.40;392.27;;;;;;;10.02;40.52;98599.44;5009038;28;20149;-59
2022/02/19 11:00:22;;;;;;;509.67;399.60;;;;;;;10.22;40.38;98599.16;5011004;28;20096;-59
2022/02/19 11:02:49;;;;;;;508.53;389.63;;;;;;;10.11;40.91;98601.84;5004210;28;20124;-58
2022/02/19 11:05:16;;;;;;;509.40;402.03;;;;;;;10.13;40.21;98605.25;4999798;28;20044;-60
2022/02/19 11:07:44;;;;;;;507.43;399.37;;;;;;;10.10;40.57;98589.91;5004410;28;20056;-62
2022/02/19 11:10:15;;;;;;;510.40;407.00;;;;;;;10.31;40.29;98606.66;5001012;28;20054;-59
2022/02/19 11:12:41;;;;;;;512.50;411.53;;;;;;;10.22;41.33;98604.28;5001178;28;20050;-56